createdAt,value
2022-09-01T00:00:11.246Z,74.50
2022-09-01T00:03:13.207Z,74.50
2022-09-01T00:06:22.330Z,73.70
2022-09-01T00:09:24.448Z,74.00
2022-09-01T00:12:27.289Z,74.30
2022-09-01T00:15:29.032Z,73.70
2022-09-01T00:18:32.638Z,77.20
2022-09-01T00:21:39.356Z,77.20
2022-09-01T00:24:41.099Z,76.70
2022-09-01T00:27:44.042Z,76.70
2022-09-01T00:30:46.037Z,77.60
2022-09-01T00:33:49.149Z,78.00
2022-09-01T00:36:50.939Z,78.00
2022-09-01T00:39:52.698Z,79.50
2022-09-01T00:42:54.497Z,78.80
2022-09-01T00:45:57.734Z,78.20
2022-09-01T00:49:05.829Z,79.20
2022-09-01T00:52:13.444Z,79.20
2022-09-01T00:55:21.681Z,79.90
2022-09-01T00:58:23.737Z,80.70
2022-09-01T01:01:26.079Z,80.10
2022-09-01T01:04:27.835Z,80.40
2022-09-01T01:07:29.791Z,81.20
2022-09-01T01:10:36.504Z,81.10
2022-09-01T01:13:55.865Z,81.40
2022-09-01T01:16:59.169Z,82.50
2022-09-01T01:20:20.058Z,81.40
2022-09-01T01:23:28.733Z,83.10
2022-09-01T01:26:30.444Z,85.00
2022-09-01T01:29:34.743Z,83.70
2022-09-01T01:32:37.697Z,82.60
2022-09-01T01:35:39.920Z,84.30
2022-09-01T01:38:44.815Z,87.20
2022-09-01T01:41:48.807Z,86.10
2022-09-01T01:44:52.331Z,84.70
2022-09-01T01:47:56.519Z,84.30
2022-09-01T01:50:59.494Z,85.00
2022-09-01T01:54:05.670Z,85.00
2022-09-01T01:57:08.295Z,86.80
2022-09-01T02:00:11.388Z,84.50
2022-09-01T02:03:19.875Z,85.90
2022-09-01T02:06:24.905Z,87.40
2022-09-01T02:09:29.315Z,87.90
2022-09-01T02:12:32.594Z,88.30
2022-09-01T02:15:44.259Z,88.40
2022-09-01T02:18:49.852Z,88.70
2022-09-01T02:21:56.015Z,89.30
2022-09-01T02:24:57.742Z,89.20
2022-09-01T02:28:00.436Z,90.10
2022-09-01T02:31:02.542Z,89.20
2022-09-01T02:34:07.028Z,90.00
2022-09-01T02:37:08.825Z,90.60
2022-09-01T02:40:15.877Z,90.20
2022-09-01T02:43:20.327Z,90.40
2022-09-01T02:46:24.308Z,90.40
2022-09-01T02:49:28.523Z,91.00
2022-09-01T02:52:35.448Z,90.50
2022-09-01T02:55:39.031Z,90.70
2022-09-01T02:58:46.335Z,90.40
2022-09-01T03:01:53.790Z,91.10
2022-09-01T03:04:57.312Z,91.40
2022-09-01T03:08:02.216Z,91.60
2022-09-01T03:11:12.708Z,91.90
2022-09-01T03:14:15.517Z,91.50
2022-09-01T03:17:17.271Z,92.10
2022-09-01T03:20:21.583Z,91.80
2022-09-01T03:23:25.322Z,91.40
2022-09-01T03:26:28.391Z,91.90
2022-09-01T03:29:30.194Z,91.60
2022-09-01T03:32:32.494Z,91.70
2022-09-01T03:35:34.508Z,91.80
2022-09-01T03:38:36.732Z,91.80
2022-09-01T03:41:39.941Z,92.00
2022-09-01T03:44:44.145Z,91.90
2022-09-01T03:47:49.570Z,91.70
2022-09-01T03:50:51.354Z,91.50
2022-09-01T03:53:57.343Z,92.00
2022-09-01T03:57:01.709Z,92.20
2022-09-01T04:00:05.217Z,92.70
2022-09-01T04:03:28.587Z,93.40
2022-09-01T04:06:30.984Z,92.60
2022-09-01T04:09:35.217Z,93.10
2022-09-01T04:12:37.819Z,93.20
2022-09-01T04:15:39.693Z,93.40
2022-09-01T04:18:41.809Z,93.70
2022-09-01T04:21:44.735Z,94.10
2022-09-01T04:24:48.033Z,94.00
2022-09-01T04:27:55.387Z,93.70
2022-09-01T04:30:58.743Z,93.70
2022-09-01T04:34:02.064Z,94.00
2022-09-01T04:37:13.055Z,93.90
2022-09-01T04:40:14.883Z,94.20
2022-09-01T04:43:16.940Z,93.90
2022-09-01T04:46:19.938Z,94.10
2022-09-01T04:49:26.354Z,94.40
2022-09-01T04:52:28.856Z,94.20
2022-09-01T04:55:32.108Z,94.00
2022-09-01T04:58:34.071Z,94.40
2022-09-01T05:01:43.242Z,94.00
2022-09-01T05:04:46.260Z,94.00
2022-09-01T05:07:54.457Z,93.90
2022-09-01T05:10:57.545Z,93.90
2022-09-01T05:14:13.391Z,93.80
2022-09-01T05:17:17.460Z,94.40
2022-09-01T05:20:20.719Z,94.10
2022-09-01T05:23:23.429Z,94.30
2022-09-01T05:26:28.255Z,94.00
2022-09-01T05:29:30.380Z,94.00
2022-09-01T05:32:33.513Z,94.00
2022-09-01T05:35:37.066Z,94.10
2022-09-01T05:38:42.057Z,94.10
2022-09-01T05:41:45.895Z,94.20
2022-09-01T05:44:48.832Z,94.00
2022-09-01T05:47:54.894Z,93.60
2022-09-01T05:50:59.666Z,93.90
2022-09-01T05:54:02.528Z,93.20
2022-09-01T05:57:30.369Z,93.00
2022-09-01T06:00:34.679Z,92.80
2022-09-01T06:03:38.065Z,92.80
2022-09-01T06:07:05.396Z,92.40
2022-09-01T06:10:08.746Z,92.10
2022-09-01T06:13:11.537Z,92.10
2022-09-01T06:16:19.572Z,92.00
2022-09-01T06:19:21.308Z,91.60
2022-09-01T06:22:25.260Z,91.60
2022-09-01T06:25:30.452Z,91.70
2022-09-01T06:28:32.899Z,91.70
2022-09-01T06:31:39.132Z,91.40
2022-09-01T06:34:44.532Z,91.40
2022-09-01T06:37:48.449Z,91.30
2022-09-01T06:41:12.914Z,91.10
2022-09-01T06:44:14.812Z,91.00
2022-09-01T06:47:24.240Z,90.50
2022-09-01T06:53:56.390Z,91.50
2022-09-01T06:58:03.357Z,90.70
2022-09-01T07:00:26.624Z,89.80
2022-09-01T07:03:30.785Z,90.10
2022-09-01T07:10:23.965Z,88.50
2022-09-01T07:13:36.338Z,87.50
2022-09-01T07:16:52.049Z,87.00
2022-09-01T07:19:56.005Z,86.70
2022-09-01T07:23:04.482Z,86.40
2022-09-01T07:29:44.892Z,84.30
2022-09-01T07:32:48.555Z,83.40
2022-09-01T07:46:40.781Z,81.30
2022-09-01T07:50:12.461Z,81.00
2022-09-01T07:53:18.309Z,81.50
2022-09-01T07:56:23.175Z,80.40
2022-09-01T07:59:27.842Z,79.50
2022-09-01T08:02:56.624Z,77.80
2022-09-01T08:06:06.486Z,77.50
2022-09-01T08:09:11.932Z,77.40
2022-09-01T08:12:29.431Z,76.20
2022-09-01T08:15:40.539Z,74.30
2022-09-01T08:18:53.502Z,75.10
2022-09-01T08:22:01.964Z,75.30
2022-09-01T08:25:15.584Z,74.50
2022-09-01T08:28:26.472Z,75.10
2022-09-01T08:31:31.306Z,73.10
2022-09-01T08:34:35.101Z,70.40
2022-09-01T08:37:38.389Z,69.60
2022-09-01T08:40:42.502Z,68.60
2022-09-01T08:43:52.365Z,67.50
2022-09-01T08:47:15.306Z,66.20
2022-09-01T08:50:20.568Z,67.20
2022-09-01T08:54:13.754Z,66.70
2022-09-01T08:57:22.197Z,65.00
2022-09-01T09:01:03.609Z,64.10
2022-09-01T09:04:27.208Z,60.50
2022-09-01T09:07:35.193Z,59.80
2022-09-01T09:10:56.338Z,61.10
2022-09-01T09:14:14.670Z,58.70
2022-09-01T09:17:21.460Z,58.90
2022-09-01T09:20:23.670Z,59.10
2022-09-01T09:23:31.241Z,55.80
2022-09-01T09:26:48.321Z,56.90
2022-09-01T09:29:56.600Z,56.30
2022-09-01T09:36:36.060Z,56.90
2022-09-01T09:39:37.931Z,54.30
2022-09-01T09:43:01.693Z,52.50
2022-09-01T09:46:24.639Z,53.40
2022-09-01T09:49:41.500Z,53.00
2022-09-01T09:52:46.813Z,52.10
2022-09-01T09:55:58.511Z,50.10
2022-09-01T09:59:00.305Z,50.10
2022-09-01T10:02:31.085Z,49.60
2022-09-01T10:05:48.687Z,48.70
2022-09-01T10:08:50.438Z,47.90
2022-09-01T10:11:55.965Z,47.50
2022-09-01T10:15:12.742Z,44.70
2022-09-01T10:18:21.037Z,45.30
2022-09-01T10:21:41.303Z,44.10
2022-09-01T10:24:45.867Z,43.80
2022-09-01T10:28:05.893Z,42.50
2022-09-01T10:31:09.091Z,42.00
2022-09-01T10:34:19.433Z,43.20
2022-09-01T10:37:23.380Z,42.20
2022-09-01T10:40:31.086Z,43.40
2022-09-01T10:43:48.824Z,43.50
2022-09-01T10:46:52.469Z,43.30
2022-09-01T10:49:54.217Z,44.50
2022-09-01T10:53:02.930Z,44.60
2022-09-01T10:56:43.582Z,45.80
2022-09-01T10:59:56.403Z,45.30
2022-09-01T11:03:31.724Z,44.40
2022-09-01T11:07:16.584Z,43.50
2022-09-01T11:10:34.831Z,45.20
2022-09-01T11:13:54.089Z,45.70
2022-09-01T11:17:17.146Z,45.60
2022-09-01T11:20:29.351Z,46.10
2022-09-01T11:23:31.449Z,45.90
2022-09-01T11:26:33.113Z,46.70
2022-09-01T11:30:16.081Z,48.10
2022-09-01T11:33:36.725Z,48.10
2022-09-01T11:36:38.388Z,49.00
2022-09-01T11:39:41.743Z,49.10
2022-09-01T11:42:46.740Z,49.10
2022-09-01T11:46:17.560Z,48.30
2022-09-01T11:49:40.067Z,48.30
2022-09-01T11:52:42.139Z,49.30
2022-09-01T11:55:46.693Z,47.50
2022-09-01T11:58:48.463Z,49.20
2022-09-01T12:01:57.520Z,49.70
2022-09-01T12:05:01.758Z,50.20
2022-09-01T12:08:18.224Z,49.70
2022-09-01T12:11:31.987Z,48.00
2022-09-01T12:14:55.072Z,48.40
2022-09-01T12:18:11.808Z,47.90
2022-09-01T12:21:24.868Z,48.00
2022-09-01T12:24:28.281Z,48.30
2022-09-01T12:27:30.204Z,47.50
2022-09-01T12:30:35.413Z,44.80
2022-09-01T12:33:37.630Z,46.80
2022-09-01T12:36:39.732Z,46.70
2022-09-01T12:39:48.990Z,46.00
2022-09-01T12:42:52.613Z,45.30
2022-09-01T12:45:54.576Z,45.20
2022-09-01T12:49:17.414Z,44.40
2022-09-01T12:52:25.197Z,44.90
2022-09-01T12:59:02.883Z,45.10
2022-09-01T13:02:34.643Z,45.20
2022-09-01T13:05:51.836Z,44.60
2022-09-01T13:08:53.680Z,45.00
2022-09-01T13:12:10.115Z,44.90
2022-09-01T13:18:21.579Z,44.90
2022-09-01T13:21:24.452Z,43.70
2022-09-01T13:24:30.268Z,44.30
2022-09-01T13:27:33.232Z,44.20
2022-09-01T13:30:35.289Z,43.00
2022-09-01T13:36:58.717Z,42.90
2022-09-01T13:40:01.640Z,42.90
2022-09-01T13:43:04.648Z,42.00
2022-09-01T13:46:06.875Z,41.90
2022-09-01T13:52:32.843Z,41.90
2022-09-01T13:55:39.337Z,41.40
2022-09-01T13:58:41.032Z,40.70
2022-09-01T14:01:42.922Z,40.80
2022-09-01T14:04:44.677Z,40.00
2022-09-01T14:07:46.606Z,40.10
2022-09-01T14:10:51.304Z,39.70
2022-09-01T14:13:53.360Z,40.10
2022-09-01T14:16:55.085Z,39.40
2022-09-01T14:19:57.468Z,38.70
2022-09-01T14:22:59.610Z,38.80
2022-09-01T14:26:01.408Z,39.00
2022-09-01T14:29:03.295Z,39.10
2022-09-01T14:32:07.789Z,40.00
2022-09-01T14:35:10.050Z,39.10
2022-09-01T14:38:13.439Z,38.90
2022-09-01T14:41:16.685Z,39.50
2022-09-01T14:44:18.436Z,39.10
2022-09-01T14:47:21.266Z,37.50
2022-09-01T14:50:23.811Z,38.70
2022-09-01T14:53:25.688Z,38.30
2022-09-01T14:56:27.471Z,38.40
2022-09-01T14:59:29.214Z,37.70
2022-09-01T15:02:32.918Z,37.20
2022-09-01T15:05:39.449Z,38.00
2022-09-01T15:08:42.629Z,38.40
2022-09-01T15:11:44.445Z,38.10
2022-09-01T15:14:47.391Z,38.50
2022-09-01T15:17:49.498Z,38.30
2022-09-01T15:20:51.645Z,37.90
2022-09-01T15:23:54.051Z,38.70
2022-09-01T15:26:56.009Z,38.50
2022-09-01T15:29:57.901Z,38.40
2022-09-01T15:32:59.849Z,37.80
2022-09-01T15:36:01.655Z,38.20
2022-09-01T15:39:03.789Z,38.10
2022-09-01T15:42:05.967Z,38.70
2022-09-01T15:45:14.127Z,38.30
2022-09-01T15:48:15.858Z,39.30
2022-09-01T15:51:20.291Z,39.20
2022-09-01T15:54:22.060Z,39.50
2022-09-01T15:57:23.831Z,39.60
2022-09-01T16:00:26.919Z,39.60
2022-09-01T16:03:31.893Z,39.90
2022-09-01T16:06:34.975Z,39.70
2022-09-01T16:09:37.194Z,39.30
2022-09-01T16:12:43.322Z,39.30
2022-09-01T16:15:51.062Z,39.10
2022-09-01T16:19:05.089Z,39.30
2022-09-01T16:22:12.082Z,39.10
2022-09-01T16:25:29.932Z,39.60
2022-09-01T16:28:36.956Z,39.20
2022-09-01T16:31:38.899Z,39.20
2022-09-01T16:34:46.910Z,40.10
2022-09-01T16:38:00.344Z,41.10
2022-09-01T16:41:22.378Z,41.20
2022-09-01T16:44:42.254Z,41.70
2022-09-01T16:47:45.013Z,41.80
2022-09-01T16:51:15.765Z,41.70
2022-09-01T16:54:37.463Z,41.70
2022-09-01T16:57:54.131Z,42.10
2022-09-01T17:01:19.481Z,42.10
2022-09-01T17:04:36.931Z,42.90
2022-09-01T17:07:45.099Z,42.80
2022-09-01T17:10:50.578Z,43.10
2022-09-01T17:13:52.751Z,43.10
2022-09-01T17:17:08.099Z,43.60
2022-09-01T17:20:10.521Z,43.60
2022-09-01T17:23:19.261Z,43.80
2022-09-01T17:26:31.261Z,43.60
2022-09-01T17:29:43.444Z,44.20
2022-09-01T17:33:18.595Z,44.30
2022-09-01T17:37:01.891Z,44.80
2022-09-01T17:40:21.780Z,45.50
2022-09-01T17:43:47.941Z,45.30
2022-09-01T17:47:21.456Z,45.40
2022-09-01T17:50:54.153Z,45.70
2022-09-01T17:54:08.150Z,46.00
2022-09-01T17:57:28.505Z,46.60
2022-09-01T18:00:39.905Z,46.30
2022-09-01T18:03:45.403Z,47.40
2022-09-01T18:07:01.357Z,48.40
2022-09-01T18:10:06.455Z,49.00
2022-09-01T18:13:30.666Z,49.60
2022-09-01T18:17:07.931Z,49.20
2022-09-01T18:20:16.611Z,50.50
2022-09-01T18:23:19.181Z,51.90
2022-09-01T18:26:24.601Z,54.20
2022-09-01T18:29:29.665Z,55.60
2022-09-01T18:32:43.015Z,56.30
2022-09-01T18:35:52.713Z,55.20
2022-09-01T18:39:22.145Z,60.70
2022-09-01T18:42:44.371Z,58.40
2022-09-01T18:45:49.121Z,57.40
2022-09-01T18:49:09.623Z,56.30
2022-09-01T18:52:38.672Z,63.20
2022-09-01T18:55:48.330Z,57.10
2022-09-01T18:59:15.060Z,60.80
2022-09-01T19:02:46.647Z,61.80
2022-09-01T19:06:16.236Z,61.80
2022-09-01T19:09:28.400Z,59.70
2022-09-01T19:12:43.988Z,60.10
2022-09-01T19:16:08.949Z,60.50
2022-09-01T19:19:47.583Z,61.70
2022-09-01T19:23:02.416Z,61.10
2022-09-01T19:26:07.137Z,59.90
2022-09-01T19:29:16.508Z,61.20
2022-09-01T19:32:21.001Z,64.30
2022-09-01T19:35:23.039Z,62.20
2022-09-01T19:38:27.779Z,64.50
2022-09-01T19:41:42.867Z,66.70
2022-09-01T19:45:12.386Z,66.80
2022-09-01T19:48:33.062Z,67.10
2022-09-01T19:52:01.967Z,65.40
2022-09-01T19:55:22.438Z,68.00
2022-09-01T19:58:31.109Z,68.00
2022-09-01T20:01:57.545Z,70.50
2022-09-01T20:05:25.784Z,67.70
2022-09-01T20:08:41.717Z,71.10
2022-09-01T20:11:57.402Z,70.30
2022-09-01T20:15:28.775Z,70.70
2022-09-01T20:18:38.922Z,71.50
2022-09-01T20:21:45.176Z,70.10
2022-09-01T20:24:47.215Z,69.10
2022-09-01T20:28:06.895Z,69.50
2022-09-01T20:31:31.968Z,68.90
2022-09-01T20:34:48.329Z,66.10
2022-09-01T20:37:56.201Z,67.00
2022-09-01T20:41:05.798Z,68.30
2022-09-01T20:44:23.193Z,67.90
2022-09-01T20:47:28.653Z,66.80
2022-09-01T20:50:43.334Z,69.60
2022-09-01T20:54:13.271Z,67.60
2022-09-01T20:57:32.192Z,67.00
2022-09-01T21:00:47.159Z,67.20
2022-09-01T21:04:02.193Z,66.10
2022-09-01T21:07:13.025Z,66.70
2022-09-01T21:10:35.272Z,66.40
2022-09-01T21:14:18.861Z,65.50
2022-09-01T21:17:52.477Z,67.90
2022-09-01T21:20:54.132Z,66.00
2022-09-01T21:23:55.941Z,66.40
2022-09-01T21:26:59.529Z,65.00
2022-09-01T21:30:13.028Z,64.70
2022-09-01T21:33:15.290Z,65.50
2022-09-01T21:36:17.931Z,65.10
2022-09-01T21:39:19.755Z,65.50
2022-09-01T21:42:25.994Z,66.20
2022-09-01T21:45:28.044Z,65.20
2022-09-01T21:48:30.861Z,64.90
2022-09-01T21:51:32.698Z,65.40
2022-09-01T21:54:35.154Z,65.40
2022-09-01T21:57:37.346Z,64.70
2022-09-01T22:00:40.278Z,65.20
2022-09-01T22:03:42.008Z,65.40
2022-09-01T22:06:44.755Z,65.80
2022-09-01T22:09:47.641Z,65.60
2022-09-01T22:12:50.363Z,66.10
2022-09-01T22:15:53.928Z,66.50
2022-09-01T22:18:55.655Z,66.90
2022-09-01T22:21:58.641Z,67.80
2022-09-01T22:25:04.335Z,69.50
2022-09-01T22:28:06.389Z,67.60
2022-09-01T22:31:16.716Z,67.20
2022-09-01T22:34:18.501Z,67.80
2022-09-01T22:37:20.235Z,68.60
2022-09-01T22:40:22.059Z,69.40
2022-09-01T22:43:24.390Z,68.20
2022-09-01T22:46:26.908Z,68.40
2022-09-01T22:49:28.701Z,68.60
2022-09-01T22:52:30.552Z,68.90
2022-09-01T22:55:36.168Z,68.30
2022-09-01T22:58:38.227Z,69.20
2022-09-01T23:01:42.556Z,70.00
2022-09-01T23:04:46.517Z,69.90
2022-09-01T23:07:48.205Z,69.50
2022-09-01T23:10:49.929Z,69.30
2022-09-01T23:13:52.629Z,69.40
2022-09-01T23:16:54.718Z,69.80
2022-09-01T23:19:59.167Z,69.80
2022-09-01T23:23:00.901Z,71.20
2022-09-01T23:26:08.051Z,71.30
2022-09-01T23:29:10.059Z,69.70
2022-09-01T23:32:11.798Z,71.60
2022-09-01T23:35:14.020Z,71.00
2022-09-01T23:38:20.383Z,70.40
2022-09-01T23:41:30.846Z,70.10
2022-09-01T23:44:32.547Z,70.80
2022-09-01T23:47:35.502Z,70.60
2022-09-01T23:50:46.257Z,71.00
2022-09-01T23:53:48.395Z,70.10
2022-09-01T23:56:50.183Z,70.80
2022-09-01T23:59:55.312Z,70.70
